sensor_id;sensor_type;location;lat;lon;timestamp;P1;durP1;ratioP1;P2;durP2;ratioP2
16314;SDS011;8266;52.150;4.768;2022-12-18T00:01:58;56.00;;;28.00;;
16314;SDS011;8266;52.150;4.768;2022-12-18T00:04:25;49.22;;;26.42;;
16314;SDS011;8266;52.150;4.768;2022-12-18T00:06:53;47.45;;;25.40;;
16314;SDS011;8266;52.150;4.768;2022-12-18T00:09:20;49.13;;;25.20;;
16314;SDS011;8266;52.150;4.768;2022-12-18T00:11:47;47.88;;;26.13;;
16314;SDS011;8266;52.150;4.768;2022-12-18T00:14:16;53.35;;;25.77;;
16314;SDS011;8266;52.150;4.768;2022-12-18T00:16:43;51.08;;;27.35;;
16314;SDS011;8266;52.150;4.768;2022-12-18T00:19:11;55.05;;;26.95;;
16314;SDS011;8266;52.150;4.768;2022-12-18T00:21:40;49.92;;;26.25;;
16314;SDS011;8266;52.150;4.768;2022-12-18T00:24:08;51.10;;;25.85;;
16314;SDS011;8266;52.150;4.768;2022-12-18T00:26:35;46.58;;;25.58;;
16314;SDS011;8266;52.150;4.768;2022-12-18T00:29:04;56.95;;;26.02;;
16314;SDS011;8266;52.150;4.768;2022-12-18T00:31:35;84.68;;;27.48;;
16314;SDS011;8266;52.150;4.768;2022-12-18T00:34:04;52.88;;;27.90;;
16314;SDS011;8266;52.150;4.768;2022-12-18T00:36:31;61.03;;;26.40;;
16314;SDS011;8266;52.150;4.768;2022-12-18T00:39:00;51.67;;;26.67;;
16314;SDS011;8266;52.150;4.768;2022-12-18T00:41:29;51.42;;;27.10;;
16314;SDS011;8266;52.150;4.768;2022-12-18T00:44:14;53.75;;;26.98;;
16314;SDS011;8266;52.150;4.768;2022-12-18T00:46:43;49.08;;;26.13;;
16314;SDS011;8266;52.150;4.768;2022-12-18T00:49:11;61.38;;;27.33;;
16314;SDS011;8266;52.150;4.768;2022-12-18T00:51:38;57.17;;;27.50;;
16314;SDS011;8266;52.150;4.768;2022-12-18T00:54:05;61.65;;;28.50;;
16314;SDS011;8266;52.150;4.768;2022-12-18T00:56:32;52.55;;;27.45;;
16314;SDS011;8266;52.150;4.768;2022-12-18T00:59:02;53.85;;;23.77;;
16314;SDS011;8266;52.150;4.768;2022-12-18T01:01:29;50.30;;;24.80;;
16314;SDS011;8266;52.150;4.768;2022-12-18T01:03:58;61.50;;;26.10;;
16314;SDS011;8266;52.150;4.768;2022-12-18T01:06:26;55.85;;;26.77;;
16314;SDS011;8266;52.150;4.768;2022-12-18T01:08:53;56.58;;;26.35;;
16314;SDS011;8266;52.150;4.768;2022-12-18T01:11:20;46.22;;;25.85;;
16314;SDS011;8266;52.150;4.768;2022-12-18T01:13:49;46.58;;;24.73;;
16314;SDS011;8266;52.150;4.768;2022-12-18T01:16:17;42.47;;;24.33;;
16314;SDS011;8266;52.150;4.768;2022-12-18T01:18:44;43.97;;;24.00;;
16314;SDS011;8266;52.150;4.768;2022-12-18T01:21:13;67.97;;;29.27;;
16314;SDS011;8266;52.150;4.768;2022-12-18T01:23:42;67.63;;;28.70;;
16314;SDS011;8266;52.150;4.768;2022-12-18T01:26:09;92.72;;;27.27;;
16314;SDS011;8266;52.150;4.768;2022-12-18T01:28:38;56.22;;;25.42;;
16314;SDS011;8266;52.150;4.768;2022-12-18T01:31:09;51.75;;;24.83;;
16314;SDS011;8266;52.150;4.768;2022-12-18T01:33:40;57.70;;;22.65;;
16314;SDS011;8266;52.150;4.768;2022-12-18T01:36:07;41.47;;;24.52;;
16314;SDS011;8266;52.150;4.768;2022-12-18T01:38:41;53.75;;;24.17;;
16314;SDS011;8266;52.150;4.768;2022-12-18T01:41:08;47.85;;;23.42;;
16314;SDS011;8266;52.150;4.768;2022-12-18T01:43:46;64.15;;;24.55;;
16314;SDS011;8266;52.150;4.768;2022-12-18T01:46:15;65.25;;;24.70;;
16314;SDS011;8266;52.150;4.768;2022-12-18T01:48:42;62.33;;;25.35;;
16314;SDS011;8266;52.150;4.768;2022-12-18T01:51:11;80.85;;;27.92;;
16314;SDS011;8266;52.150;4.768;2022-12-18T01:53:39;48.40;;;25.10;;
16314;SDS011;8266;52.150;4.768;2022-12-18T01:56:11;58.72;;;26.85;;
16314;SDS011;8266;52.150;4.768;2022-12-18T01:58:41;83.78;;;28.02;;
16314;SDS011;8266;52.150;4.768;2022-12-18T02:01:19;92.40;;;27.80;;
16314;SDS011;8266;52.150;4.768;2022-12-18T02:03:47;54.92;;;25.42;;
16314;SDS011;8266;52.150;4.768;2022-12-18T02:06:15;62.83;;;24.50;;
16314;SDS011;8266;52.150;4.768;2022-12-18T02:08:50;48.55;;;23.98;;
16314;SDS011;8266;52.150;4.768;2022-12-18T02:11:30;39.55;;;23.02;;
16314;SDS011;8266;52.150;4.768;2022-12-18T02:14:08;41.88;;;22.60;;
16314;SDS011;8266;52.150;4.768;2022-12-18T02:16:43;53.25;;;25.38;;
16314;SDS011;8266;52.150;4.768;2022-12-18T02:19:19;46.90;;;22.60;;
16314;SDS011;8266;52.150;4.768;2022-12-18T02:22:03;57.75;;;23.48;;
16314;SDS011;8266;52.150;4.768;2022-12-18T02:24:42;45.58;;;22.38;;
16314;SDS011;8266;52.150;4.768;2022-12-18T02:27:23;52.70;;;23.25;;
16314;SDS011;8266;52.150;4.768;2022-12-18T02:29:51;79.13;;;25.20;;
16314;SDS011;8266;52.150;4.768;2022-12-18T02:32:22;60.83;;;24.67;;
16314;SDS011;8266;52.150;4.768;2022-12-18T02:34:52;61.40;;;22.45;;
16314;SDS011;8266;52.150;4.768;2022-12-18T02:37:21;45.72;;;23.48;;
16314;SDS011;8266;52.150;4.768;2022-12-18T02:39:51;46.17;;;21.98;;
16314;SDS011;8266;52.150;4.768;2022-12-18T02:42:22;61.80;;;22.20;;
16314;SDS011;8266;52.150;4.768;2022-12-18T02:44:50;44.75;;;20.60;;
16314;SDS011;8266;52.150;4.768;2022-12-18T02:47:18;57.30;;;23.13;;
16314;SDS011;8266;52.150;4.768;2022-12-18T02:49:49;59.30;;;21.65;;
16314;SDS011;8266;52.150;4.768;2022-12-18T02:52:25;35.60;;;20.40;;
16314;SDS011;8266;52.150;4.768;2022-12-18T02:54:57;62.13;;;25.33;;
16314;SDS011;8266;52.150;4.768;2022-12-18T02:57:34;45.58;;;22.17;;
16314;SDS011;8266;52.150;4.768;2022-12-18T03:00:08;89.03;;;26.02;;
16314;SDS011;8266;52.150;4.768;2022-12-18T03:02:39;76.32;;;25.35;;
16314;SDS011;8266;52.150;4.768;2022-12-18T03:05:13;47.85;;;21.63;;
16314;SDS011;8266;52.150;4.768;2022-12-18T03:07:43;46.92;;;21.80;;
16314;SDS011;8266;52.150;4.768;2022-12-18T03:10:16;44.95;;;21.67;;
16314;SDS011;8266;52.150;4.768;2022-12-18T03:12:50;38.78;;;21.08;;
16314;SDS011;8266;52.150;4.768;2022-12-18T03:15:21;56.05;;;22.45;;
16314;SDS011;8266;52.150;4.768;2022-12-18T03:17:52;50.15;;;22.75;;
16314;SDS011;8266;52.150;4.768;2022-12-18T03:20:23;46.00;;;22.77;;
16314;SDS011;8266;52.150;4.768;2022-12-18T03:22:53;46.17;;;23.50;;
16314;SDS011;8266;52.150;4.768;2022-12-18T03:25:26;56.72;;;23.98;;
16314;SDS011;8266;52.150;4.768;2022-12-18T03:27:57;51.92;;;24.40;;
16314;SDS011;8266;52.150;4.768;2022-12-18T03:30:26;48.60;;;24.30;;
16314;SDS011;8266;52.150;4.768;2022-12-18T03:32:58;40.67;;;23.95;;
16314;SDS011;8266;52.150;4.768;2022-12-18T03:35:31;49.90;;;23.80;;
16314;SDS011;8266;52.150;4.768;2022-12-18T03:38:02;79.82;;;24.35;;
16314;SDS011;8266;52.150;4.768;2022-12-18T03:40:29;50.22;;;23.63;;
16314;SDS011;8266;52.150;4.768;2022-12-18T03:43:03;40.75;;;22.45;;
16314;SDS011;8266;52.150;4.768;2022-12-18T03:45:37;49.67;;;24.10;;
16314;SDS011;8266;52.150;4.768;2022-12-18T03:48:09;43.33;;;22.45;;
16314;SDS011;8266;52.150;4.768;2022-12-18T03:50:46;41.60;;;23.35;;
16314;SDS011;8266;52.150;4.768;2022-12-18T03:53:22;44.40;;;22.95;;
16314;SDS011;8266;52.150;4.768;2022-12-18T03:55:55;43.15;;;22.52;;
16314;SDS011;8266;52.150;4.768;2022-12-18T03:58:25;75.07;;;25.77;;
16314;SDS011;8266;52.150;4.768;2022-12-18T04:00:55;47.08;;;24.13;;
16314;SDS011;8266;52.150;4.768;2022-12-18T04:03:25;43.53;;;22.58;;
16314;SDS011;8266;52.150;4.768;2022-12-18T04:05:54;57.53;;;22.52;;
16314;SDS011;8266;52.150;4.768;2022-12-18T04:08:24;37.05;;;21.67;;
16314;SDS011;8266;52.150;4.768;2022-12-18T04:10:51;44.03;;;22.55;;
16314;SDS011;8266;52.150;4.768;2022-12-18T04:13:21;39.72;;;22.35;;
16314;SDS011;8266;52.150;4.768;2022-12-18T04:15:50;38.35;;;21.50;;
16314;SDS011;8266;52.150;4.768;2022-12-18T04:18:17;37.08;;;22.67;;
16314;SDS011;8266;52.150;4.768;2022-12-18T04:20:44;46.30;;;22.70;;
16314;SDS011;8266;52.150;4.768;2022-12-18T04:23:11;43.28;;;23.00;;
16314;SDS011;8266;52.150;4.768;2022-12-18T04:25:39;37.00;;;21.75;;
16314;SDS011;8266;52.150;4.768;2022-12-18T04:28:05;35.05;;;21.15;;
16314;SDS011;8266;52.150;4.768;2022-12-18T04:30:33;36.33;;;21.85;;
16314;SDS011;8266;52.150;4.768;2022-12-18T04:33:01;35.28;;;20.90;;
16314;SDS011;8266;52.150;4.768;2022-12-18T04:35:28;36.90;;;20.67;;
16314;SDS011;8266;52.150;4.768;2022-12-18T04:37:55;37.40;;;21.42;;
16314;SDS011;8266;52.150;4.768;2022-12-18T04:40:22;40.38;;;22.20;;
16314;SDS011;8266;52.150;4.768;2022-12-18T04:42:48;34.03;;;21.45;;
16314;SDS011;8266;52.150;4.768;2022-12-18T04:45:15;34.25;;;20.25;;
16314;SDS011;8266;52.150;4.768;2022-12-18T04:47:42;36.63;;;21.42;;
16314;SDS011;8266;52.150;4.768;2022-12-18T04:50:11;36.47;;;22.45;;
16314;SDS011;8266;52.150;4.768;2022-12-18T04:52:38;36.03;;;20.75;;
16314;SDS011;8266;52.150;4.768;2022-12-18T04:55:05;35.90;;;20.88;;
16314;SDS011;8266;52.150;4.768;2022-12-18T04:57:32;40.67;;;21.58;;
16314;SDS011;8266;52.150;4.768;2022-12-18T04:59:59;34.03;;;19.63;;
16314;SDS011;8266;52.150;4.768;2022-12-18T05:02:26;32.60;;;20.35;;
16314;SDS011;8266;52.150;4.768;2022-12-18T05:04:53;31.70;;;19.75;;
16314;SDS011;8266;52.150;4.768;2022-12-18T05:07:21;33.88;;;19.83;;
16314;SDS011;8266;52.150;4.768;2022-12-18T05:09:48;34.65;;;20.15;;
16314;SDS011;8266;52.150;4.768;2022-12-18T05:12:15;33.85;;;20.30;;
16314;SDS011;8266;52.150;4.768;2022-12-18T05:14:42;35.65;;;20.95;;
16314;SDS011;8266;52.150;4.768;2022-12-18T05:17:09;35.22;;;19.38;;
16314;SDS011;8266;52.150;4.768;2022-12-18T05:19:36;34.38;;;19.05;;
16314;SDS011;8266;52.150;4.768;2022-12-18T05:22:03;30.42;;;20.30;;
16314;SDS011;8266;52.150;4.768;2022-12-18T05:24:32;30.75;;;19.02;;
16314;SDS011;8266;52.150;4.768;2022-12-18T05:26:58;31.73;;;19.38;;
16314;SDS011;8266;52.150;4.768;2022-12-18T05:29:25;28.90;;;18.65;;
16314;SDS011;8266;52.150;4.768;2022-12-18T05:31:52;26.73;;;17.75;;
16314;SDS011;8266;52.150;4.768;2022-12-18T05:34:19;30.13;;;18.45;;
16314;SDS011;8266;52.150;4.768;2022-12-18T05:36:46;32.30;;;19.55;;
16314;SDS011;8266;52.150;4.768;2022-12-18T05:39:13;28.40;;;17.85;;
16314;SDS011;8266;52.150;4.768;2022-12-18T05:41:42;31.35;;;19.90;;
16314;SDS011;8266;52.150;4.768;2022-12-18T05:44:09;31.08;;;19.13;;
16314;SDS011;8266;52.150;4.768;2022-12-18T05:46:35;30.17;;;18.35;;
16314;SDS011;8266;52.150;4.768;2022-12-18T05:49:02;26.10;;;17.25;;
16314;SDS011;8266;52.150;4.768;2022-12-18T05:51:29;26.35;;;17.33;;
16314;SDS011;8266;52.150;4.768;2022-12-18T05:53:56;24.85;;;17.25;;
16314;SDS011;8266;52.150;4.768;2022-12-18T05:56:23;27.45;;;17.55;;
16314;SDS011;8266;52.150;4.768;2022-12-18T05:58:52;29.70;;;18.55;;
16314;SDS011;8266;52.150;4.768;2022-12-18T06:01:21;32.67;;;20.08;;
16314;SDS011;8266;52.150;4.768;2022-12-18T06:03:50;31.85;;;19.15;;
16314;SDS011;8266;52.150;4.768;2022-12-18T06:06:17;26.52;;;18.17;;
16314;SDS011;8266;52.150;4.768;2022-12-18T06:08:47;29.08;;;18.63;;
16314;SDS011;8266;52.150;4.768;2022-12-18T06:11:16;28.02;;;18.20;;
16314;SDS011;8266;52.150;4.768;2022-12-18T06:13:44;30.17;;;18.85;;
16314;SDS011;8266;52.150;4.768;2022-12-18T06:16:12;27.98;;;17.98;;
16314;SDS011;8266;52.150;4.768;2022-12-18T06:18:39;26.60;;;18.08;;
16314;SDS011;8266;52.150;4.768;2022-12-18T06:21:06;28.65;;;18.27;;
16314;SDS011;8266;52.150;4.768;2022-12-18T06:23:33;25.92;;;17.30;;
16314;SDS011;8266;52.150;4.768;2022-12-18T06:26:03;24.45;;;17.10;;
16314;SDS011;8266;52.150;4.768;2022-12-18T06:28:31;26.55;;;18.67;;
16314;SDS011;8266;52.150;4.768;2022-12-18T06:30:58;26.60;;;17.17;;
16314;SDS011;8266;52.150;4.768;2022-12-18T06:33:27;29.88;;;18.70;;
16314;SDS011;8266;52.150;4.768;2022-12-18T06:35:54;24.65;;;16.90;;
16314;SDS011;8266;52.150;4.768;2022-12-18T06:38:25;26.75;;;17.42;;
16314;SDS011;8266;52.150;4.768;2022-12-18T06:40:53;27.75;;;18.33;;
16314;SDS011;8266;52.150;4.768;2022-12-18T06:43:19;27.33;;;18.95;;
16314;SDS011;8266;52.150;4.768;2022-12-18T06:45:46;29.20;;;19.83;;
16314;SDS011;8266;52.150;4.768;2022-12-18T06:48:17;32.05;;;20.83;;
16314;SDS011;8266;52.150;4.768;2022-12-18T06:50:46;27.00;;;19.52;;
16314;SDS011;8266;52.150;4.768;2022-12-18T06:53:13;31.00;;;21.08;;
16314;SDS011;8266;52.150;4.768;2022-12-18T06:55:40;30.20;;;20.52;;
16314;SDS011;8266;52.150;4.768;2022-12-18T06:58:07;31.35;;;20.20;;
16314;SDS011;8266;52.150;4.768;2022-12-18T07:00:35;29.10;;;19.60;;
16314;SDS011;8266;52.150;4.768;2022-12-18T07:03:01;31.38;;;21.83;;
16314;SDS011;8266;52.150;4.768;2022-12-18T07:05:28;27.65;;;18.80;;
16314;SDS011;8266;52.150;4.768;2022-12-18T07:07:57;24.42;;;17.73;;
16314;SDS011;8266;52.150;4.768;2022-12-18T07:10:24;26.92;;;19.00;;
16314;SDS011;8266;52.150;4.768;2022-12-18T07:12:52;24.67;;;18.88;;
16314;SDS011;8266;52.150;4.768;2022-12-18T07:15:19;24.20;;;18.10;;
16314;SDS011;8266;52.150;4.768;2022-12-18T07:17:46;24.85;;;18.05;;
16314;SDS011;8266;52.150;4.768;2022-12-18T07:20:12;25.75;;;17.65;;
16314;SDS011;8266;52.150;4.768;2022-12-18T07:22:39;22.70;;;16.15;;
16314;SDS011;8266;52.150;4.768;2022-12-18T07:25:08;25.83;;;18.58;;
16314;SDS011;8266;52.150;4.768;2022-12-18T07:27:35;25.65;;;17.60;;
16314;SDS011;8266;52.150;4.768;2022-12-18T07:30:02;24.27;;;17.88;;
16314;SDS011;8266;52.150;4.768;2022-12-18T07:32:30;23.83;;;16.40;;
16314;SDS011;8266;52.150;4.768;2022-12-18T07:34:57;24.53;;;16.20;;
16314;SDS011;8266;52.150;4.768;2022-12-18T07:37:24;24.80;;;17.08;;
16314;SDS011;8266;52.150;4.768;2022-12-18T07:39:51;21.90;;;16.17;;
16314;SDS011;8266;52.150;4.768;2022-12-18T07:42:19;22.42;;;15.10;;
16314;SDS011;8266;52.150;4.768;2022-12-18T07:44:58;22.23;;;15.90;;
16314;SDS011;8266;52.150;4.768;2022-12-18T07:47:25;20.52;;;15.32;;
16314;SDS011;8266;52.150;4.768;2022-12-18T07:49:52;20.55;;;15.32;;
16314;SDS011;8266;52.150;4.768;2022-12-18T07:52:19;21.30;;;14.98;;
16314;SDS011;8266;52.150;4.768;2022-12-18T07:54:46;19.67;;;14.10;;
16314;SDS011;8266;52.150;4.768;2022-12-18T07:57:14;21.48;;;15.40;;
16314;SDS011;8266;52.150;4.768;2022-12-18T07:59:43;23.30;;;14.65;;
16314;SDS011;8266;52.150;4.768;2022-12-18T08:02:09;23.55;;;16.08;;
16314;SDS011;8266;52.150;4.768;2022-12-18T08:04:36;21.55;;;15.25;;
16314;SDS011;8266;52.150;4.768;2022-12-18T08:07:03;20.08;;;14.43;;
16314;SDS011;8266;52.150;4.768;2022-12-18T08:09:33;16.83;;;14.23;;
16314;SDS011;8266;52.150;4.768;2022-12-18T08:12:00;20.35;;;15.20;;
16314;SDS011;8266;52.150;4.768;2022-12-18T08:14:27;21.15;;;14.82;;
16314;SDS011;8266;52.150;4.768;2022-12-18T08:16:55;23.65;;;16.45;;
16314;SDS011;8266;52.150;4.768;2022-12-18T08:19:22;19.55;;;15.38;;
16314;SDS011;8266;52.150;4.768;2022-12-18T08:21:50;21.98;;;16.23;;
16314;SDS011;8266;52.150;4.768;2022-12-18T08:24:17;20.02;;;15.38;;
16314;SDS011;8266;52.150;4.768;2022-12-18T08:26:44;19.60;;;14.68;;
16314;SDS011;8266;52.150;4.768;2022-12-18T08:29:11;18.75;;;15.00;;
16314;SDS011;8266;52.150;4.768;2022-12-18T08:31:41;16.95;;;13.45;;
16314;SDS011;8266;52.150;4.768;2022-12-18T08:34:11;17.33;;;13.63;;
16314;SDS011;8266;52.150;4.768;2022-12-18T08:36:38;17.80;;;13.55;;
16314;SDS011;8266;52.150;4.768;2022-12-18T08:39:05;18.73;;;13.55;;
16314;SDS011;8266;52.150;4.768;2022-12-18T08:41:32;17.85;;;13.60;;
16314;SDS011;8266;52.150;4.768;2022-12-18T08:43:59;18.40;;;13.98;;
16314;SDS011;8266;52.150;4.768;2022-12-18T08:46:58;17.75;;;13.02;;
16314;SDS011;8266;52.150;4.768;2022-12-18T08:49:26;20.40;;;13.75;;
16314;SDS011;8266;52.150;4.768;2022-12-18T08:51:53;18.48;;;14.20;;
16314;SDS011;8266;52.150;4.768;2022-12-18T08:54:22;18.60;;;13.48;;
16314;SDS011;8266;52.150;4.768;2022-12-18T08:56:49;18.83;;;13.57;;
16314;SDS011;8266;52.150;4.768;2022-12-18T08:59:16;16.80;;;13.48;;
16314;SDS011;8266;52.150;4.768;2022-12-18T09:01:43;17.30;;;13.15;;
16314;SDS011;8266;52.150;4.768;2022-12-18T09:04:11;18.95;;;13.10;;
16314;SDS011;8266;52.150;4.768;2022-12-18T09:06:40;18.35;;;13.75;;
16314;SDS011;8266;52.150;4.768;2022-12-18T09:09:07;22.80;;;15.07;;
16314;SDS011;8266;52.150;4.768;2022-12-18T09:11:36;19.52;;;14.10;;
16314;SDS011;8266;52.150;4.768;2022-12-18T09:14:03;21.17;;;15.18;;
16314;SDS011;8266;52.150;4.768;2022-12-18T09:16:29;19.42;;;14.63;;
16314;SDS011;8266;52.150;4.768;2022-12-18T09:18:59;18.63;;;13.80;;
16314;SDS011;8266;52.150;4.768;2022-12-18T09:21:27;18.55;;;14.07;;
16314;SDS011;8266;52.150;4.768;2022-12-18T09:23:56;17.25;;;13.68;;
16314;SDS011;8266;52.150;4.768;2022-12-18T09:26:24;21.15;;;15.23;;
16314;SDS011;8266;52.150;4.768;2022-12-18T09:28:52;21.50;;;14.98;;
16314;SDS011;8266;52.150;4.768;2022-12-18T09:31:20;18.80;;;14.75;;
16314;SDS011;8266;52.150;4.768;2022-12-18T09:33:48;19.45;;;14.15;;
16314;SDS011;8266;52.150;4.768;2022-12-18T09:36:15;22.73;;;16.30;;
16314;SDS011;8266;52.150;4.768;2022-12-18T09:38:43;21.08;;;15.15;;
16314;SDS011;8266;52.150;4.768;2022-12-18T09:41:17;18.73;;;14.88;;
16314;SDS011;8266;52.150;4.768;2022-12-18T09:43:55;19.10;;;14.77;;
16314;SDS011;8266;52.150;4.768;2022-12-18T09:46:26;19.35;;;15.30;;
16314;SDS011;8266;52.150;4.768;2022-12-18T09:48:57;22.83;;;16.42;;
16314;SDS011;8266;52.150;4.768;2022-12-18T09:51:26;18.42;;;14.60;;
16314;SDS011;8266;52.150;4.768;2022-12-18T09:53:56;20.02;;;14.93;;
16314;SDS011;8266;52.150;4.768;2022-12-18T09:56:28;19.98;;;15.13;;
16314;SDS011;8266;52.150;4.768;2022-12-18T09:59:02;18.42;;;14.93;;
16314;SDS011;8266;52.150;4.768;2022-12-18T10:01:31;20.83;;;15.80;;
16314;SDS011;8266;52.150;4.768;2022-12-18T10:03:58;21.25;;;15.05;;
16314;SDS011;8266;52.150;4.768;2022-12-18T10:06:26;22.23;;;15.15;;
16314;SDS011;8266;52.150;4.768;2022-12-18T10:08:59;20.05;;;15.23;;
16314;SDS011;8266;52.150;4.768;2022-12-18T10:11:34;20.23;;;14.60;;
16314;SDS011;8266;52.150;4.768;2022-12-18T10:14:09;19.25;;;14.93;;
16314;SDS011;8266;52.150;4.768;2022-12-18T10:16:42;21.45;;;15.32;;
16314;SDS011;8266;52.150;4.768;2022-12-18T10:19:20;22.15;;;16.30;;
16314;SDS011;8266;52.150;4.768;2022-12-18T10:21:58;22.75;;;16.13;;
16314;SDS011;8266;52.150;4.768;2022-12-18T10:24:32;22.15;;;16.63;;
16314;SDS011;8266;52.150;4.768;2022-12-18T10:27:09;21.73;;;15.95;;
16314;SDS011;8266;52.150;4.768;2022-12-18T10:29:40;19.55;;;14.63;;
16314;SDS011;8266;52.150;4.768;2022-12-18T10:32:08;19.98;;;16.13;;
16314;SDS011;8266;52.150;4.768;2022-12-18T10:34:43;21.25;;;16.25;;
16314;SDS011;8266;52.150;4.768;2022-12-18T10:37:12;21.55;;;16.63;;
16314;SDS011;8266;52.150;4.768;2022-12-18T10:39:42;18.05;;;14.93;;
16314;SDS011;8266;52.150;4.768;2022-12-18T10:42:13;20.55;;;14.73;;
16314;SDS011;8266;52.150;4.768;2022-12-18T10:44:45;19.90;;;14.95;;
16314;SDS011;8266;52.150;4.768;2022-12-18T10:47:26;21.50;;;14.90;;
16314;SDS011;8266;52.150;4.768;2022-12-18T10:49:54;19.90;;;14.52;;
16314;SDS011;8266;52.150;4.768;2022-12-18T10:52:21;18.25;;;14.68;;
16314;SDS011;8266;52.150;4.768;2022-12-18T10:54:51;18.20;;;14.25;;
16314;SDS011;8266;52.150;4.768;2022-12-18T10:57:34;17.70;;;14.55;;
16314;SDS011;8266;52.150;4.768;2022-12-18T11:00:20;18.50;;;14.55;;
16314;SDS011;8266;52.150;4.768;2022-12-18T11:02:52;19.83;;;15.27;;
16314;SDS011;8266;52.150;4.768;2022-12-18T11:05:24;19.83;;;15.63;;
16314;SDS011;8266;52.150;4.768;2022-12-18T11:07:56;19.42;;;14.75;;
16314;SDS011;8266;52.150;4.768;2022-12-18T11:10:26;18.40;;;14.23;;
16314;SDS011;8266;52.150;4.768;2022-12-18T11:12:57;17.23;;;13.63;;
16314;SDS011;8266;52.150;4.768;2022-12-18T11:15:42;19.08;;;15.05;;
16314;SDS011;8266;52.150;4.768;2022-12-18T11:18:15;18.98;;;13.80;;
16314;SDS011;8266;52.150;4.768;2022-12-18T11:20:49;19.17;;;14.65;;
16314;SDS011;8266;52.150;4.768;2022-12-18T11:23:18;17.52;;;14.02;;
16314;SDS011;8266;52.150;4.768;2022-12-18T11:25:50;18.75;;;14.98;;
16314;SDS011;8266;52.150;4.768;2022-12-18T11:28:35;19.33;;;14.73;;
16314;SDS011;8266;52.150;4.768;2022-12-18T11:31:11;20.13;;;15.32;;
16314;SDS011;8266;52.150;4.768;2022-12-18T11:33:44;17.73;;;14.07;;
16314;SDS011;8266;52.150;4.768;2022-12-18T11:36:15;22.02;;;15.25;;
16314;SDS011;8266;52.150;4.768;2022-12-18T11:38:42;17.85;;;14.43;;
16314;SDS011;8266;52.150;4.768;2022-12-18T11:41:14;20.73;;;15.45;;
16314;SDS011;8266;52.150;4.768;2022-12-18T11:43:50;20.27;;;16.05;;
16314;SDS011;8266;52.150;4.768;2022-12-18T11:46:24;19.48;;;15.43;;
16314;SDS011;8266;52.150;4.768;2022-12-18T11:48:54;19.38;;;16.23;;
16314;SDS011;8266;52.150;4.768;2022-12-18T11:51:29;26.00;;;18.33;;
16314;SDS011;8266;52.150;4.768;2022-12-18T11:54:00;20.90;;;16.95;;
16314;SDS011;8266;52.150;4.768;2022-12-18T11:56:35;20.00;;;16.13;;
16314;SDS011;8266;52.150;4.768;2022-12-18T11:59:08;20.08;;;15.45;;
16314;SDS011;8266;52.150;4.768;2022-12-18T12:01:45;21.40;;;16.27;;
16314;SDS011;8266;52.150;4.768;2022-12-18T12:04:30;19.20;;;15.63;;
16314;SDS011;8266;52.150;4.768;2022-12-18T12:07:17;17.70;;;14.68;;
16314;SDS011;8266;52.150;4.768;2022-12-18T12:09:56;18.65;;;14.35;;
16314;SDS011;8266;52.150;4.768;2022-12-18T12:12:32;21.25;;;16.50;;
16314;SDS011;8266;52.150;4.768;2022-12-18T12:15:18;21.98;;;15.18;;
16314;SDS011;8266;52.150;4.768;2022-12-18T12:17:53;19.00;;;15.15;;
16314;SDS011;8266;52.150;4.768;2022-12-18T12:20:27;20.08;;;16.23;;
16314;SDS011;8266;52.150;4.768;2022-12-18T12:23:05;24.95;;;16.23;;
16314;SDS011;8266;52.150;4.768;2022-12-18T12:25:41;23.40;;;16.77;;
16314;SDS011;8266;52.150;4.768;2022-12-18T12:28:15;21.10;;;16.30;;
16314;SDS011;8266;52.150;4.768;2022-12-18T12:31:04;22.75;;;16.27;;
16314;SDS011;8266;52.150;4.768;2022-12-18T12:33:40;20.45;;;15.15;;
16314;SDS011;8266;52.150;4.768;2022-12-18T12:36:16;28.52;;;19.92;;
16314;SDS011;8266;52.150;4.768;2022-12-18T12:38:50;19.10;;;15.40;;
16314;SDS011;8266;52.150;4.768;2022-12-18T12:41:21;19.83;;;16.13;;
16314;SDS011;8266;52.150;4.768;2022-12-18T12:44:09;18.83;;;14.90;;
16314;SDS011;8266;52.150;4.768;2022-12-18T12:46:44;22.15;;;15.43;;
16314;SDS011;8266;52.150;4.768;2022-12-18T12:49:13;22.70;;;17.42;;
16314;SDS011;8266;52.150;4.768;2022-12-18T12:51:44;23.30;;;17.30;;
16314;SDS011;8266;52.150;4.768;2022-12-18T12:54:16;21.25;;;16.23;;
16314;SDS011;8266;52.150;4.768;2022-12-18T12:56:48;18.40;;;14.48;;
16314;SDS011;8266;52.150;4.768;2022-12-18T12:59:22;20.55;;;15.85;;
16314;SDS011;8266;52.150;4.768;2022-12-18T13:01:57;21.20;;;15.63;;
16314;SDS011;8266;52.150;4.768;2022-12-18T13:04:30;23.50;;;17.48;;
16314;SDS011;8266;52.150;4.768;2022-12-18T13:07:03;21.77;;;17.40;;
16314;SDS011;8266;52.150;4.768;2022-12-18T13:10:12;25.80;;;21.58;;
16314;SDS011;8266;52.150;4.768;2022-12-18T13:12:51;22.13;;;18.30;;
16314;SDS011;8266;52.150;4.768;2022-12-18T13:15:22;20.67;;;16.13;;
16314;SDS011;8266;52.150;4.768;2022-12-18T13:18:04;21.85;;;16.42;;
16314;SDS011;8266;52.150;4.768;2022-12-18T13:20:40;24.95;;;18.90;;
16314;SDS011;8266;52.150;4.768;2022-12-18T13:23:19;21.63;;;16.20;;
16314;SDS011;8266;52.150;4.768;2022-12-18T13:25:54;21.38;;;17.67;;
16314;SDS011;8266;52.150;4.768;2022-12-18T13:28:22;20.60;;;15.82;;
16314;SDS011;8266;52.150;4.768;2022-12-18T13:31:10;17.77;;;15.35;;
16314;SDS011;8266;52.150;4.768;2022-12-18T13:33:43;21.23;;;16.83;;
16314;SDS011;8266;52.150;4.768;2022-12-18T13:39:10;23.63;;;19.73;;
16314;SDS011;8266;52.150;4.768;2022-12-18T13:41:48;22.27;;;16.75;;
16314;SDS011;8266;52.150;4.768;2022-12-18T13:44:22;22.05;;;17.83;;
16314;SDS011;8266;52.150;4.768;2022-12-18T13:46:51;22.05;;;17.92;;
16314;SDS011;8266;52.150;4.768;2022-12-18T13:49:22;20.63;;;15.63;;
16314;SDS011;8266;52.150;4.768;2022-12-18T13:51:52;20.38;;;17.13;;
16314;SDS011;8266;52.150;4.768;2022-12-18T13:54:22;20.17;;;16.88;;
16314;SDS011;8266;52.150;4.768;2022-12-18T13:56:54;21.20;;;16.33;;
16314;SDS011;8266;52.150;4.768;2022-12-18T13:59:22;20.75;;;16.00;;
16314;SDS011;8266;52.150;4.768;2022-12-18T14:01:51;19.85;;;14.82;;
16314;SDS011;8266;52.150;4.768;2022-12-18T14:04:23;21.92;;;17.40;;
16314;SDS011;8266;52.150;4.768;2022-12-18T14:06:52;21.52;;;17.33;;
16314;SDS011;8266;52.150;4.768;2022-12-18T14:09:24;21.67;;;16.85;;
16314;SDS011;8266;52.150;4.768;2022-12-18T14:11:52;22.70;;;17.23;;
16314;SDS011;8266;52.150;4.768;2022-12-18T14:14:42;19.83;;;16.60;;
16314;SDS011;8266;52.150;4.768;2022-12-18T14:17:12;23.05;;;17.05;;
16314;SDS011;8266;52.150;4.768;2022-12-18T14:19:42;18.38;;;14.80;;
16314;SDS011;8266;52.150;4.768;2022-12-18T14:22:14;20.52;;;16.25;;
16314;SDS011;8266;52.150;4.768;2022-12-18T14:24:43;20.05;;;15.38;;
16314;SDS011;8266;52.150;4.768;2022-12-18T14:27:21;20.80;;;15.55;;
16314;SDS011;8266;52.150;4.768;2022-12-18T14:29:49;20.42;;;16.75;;
16314;SDS011;8266;52.150;4.768;2022-12-18T14:32:17;19.73;;;16.92;;
16314;SDS011;8266;52.150;4.768;2022-12-18T14:34:47;21.40;;;16.42;;
16314;SDS011;8266;52.150;4.768;2022-12-18T14:37:15;23.52;;;17.38;;
16314;SDS011;8266;52.150;4.768;2022-12-18T14:39:54;21.00;;;16.80;;
16314;SDS011;8266;52.150;4.768;2022-12-18T14:42:23;21.65;;;16.67;;
16314;SDS011;8266;52.150;4.768;2022-12-18T14:47:54;22.23;;;16.80;;
16314;SDS011;8266;52.150;4.768;2022-12-18T14:50:22;22.80;;;17.08;;
16314;SDS011;8266;52.150;4.768;2022-12-18T14:52:49;20.17;;;15.63;;
16314;SDS011;8266;52.150;4.768;2022-12-18T14:55:20;18.65;;;14.95;;
16314;SDS011;8266;52.150;4.768;2022-12-18T14:57:48;20.50;;;15.73;;
16314;SDS011;8266;52.150;4.768;2022-12-18T15:00:19;19.45;;;15.98;;